Time;durP1;ratioP1;P1;durP2;ratioP2;P2;SDS_P1;SDS_P2;PMS_P1;PMS_P2;Temp;Humidity;BMP_temperature;BMP_pressure;BME280_temperature;BME280_humidity;BME280_pressure;Samples;Min_cycle;Max_cycle;Signal;HPM_P1;HPM_P2
2021/05/03 00:00:07;;;;;;;6.10;3.63;;;-0.20;99.90;;;;;;5135775;27;20074;-84
2021/05/03 00:02:35;;;;;;;6.38;3.90;;;-0.20;99.90;;;;;;5105891;28;20099;-84
2021/05/03 00:05:04;;;;;;;10.85;5.07;;;-0.10;99.90;;;;;;5124604;28;20138;-83
2021/05/03 00:07:30;;;;;;;9.63;6.10;;;-0.10;99.90;;;;;;5104182;28;20074;-83
2021/05/03 00:09:56;;;;;;;6.82;5.28;;;0.00;99.90;;;;;;5104284;28;20047;-82
2021/05/03 00:12:23;;;;;;;8.18;5.10;;;0.10;99.90;;;;;;5120221;27;20076;-84
2021/05/03 00:14:50;;;;;;;7.90;4.95;;;0.20;99.90;;;;;;5120224;28;20139;-84
2021/05/03 00:17:18;;;;;;;5.70;4.45;;;0.20;99.90;;;;;;5121263;28;20072;-84
2021/05/03 00:19:45;;;;;;;10.15;5.95;;;0.20;99.90;;;;;;5120957;27;20071;-83
2021/05/03 00:22:12;;;;;;;6.40;4.50;;;0.20;99.90;;;;;;5120589;28;20514;-83
2021/05/03 00:24:38;;;;;;;8.30;4.82;;;0.20;99.90;;;;;;5119360;27;20137;-84
2021/05/03 00:27:04;;;;;;;5.53;4.72;;;0.10;99.90;;;;;;5138532;27;20457;-83
2021/05/03 00:29:31;;;;;;;4.93;4.35;;;0.00;99.90;;;;;;5137601;27;20104;-83
2021/05/03 00:31:57;;;;;;;6.53;4.38;;;0.00;99.90;;;;;;5110134;28;20135;-84
2021/05/03 00:34:24;;;;;;;4.78;4.38;;;0.00;99.90;;;;;;5100222;28;20047;-84
2021/05/03 00:36:50;;;;;;;7.10;4.25;;;-0.10;99.90;;;;;;5120774;28;20081;-83
2021/05/03 00:39:16;;;;;;;6.05;4.07;;;-0.30;99.90;;;;;;5121164;28;20055;-84
2021/05/03 00:41:43;;;;;;;5.82;3.92;;;-0.40;99.90;;;;;;5121894;27;20058;-84
2021/05/03 00:44:09;;;;;;;6.18;3.67;;;-0.30;99.90;;;;;;5127057;27;20043;-84
2021/05/03 00:46:38;;;;;;;17.10;5.40;;;-0.30;99.90;;;;;;5126243;27;20055;-84
2021/05/03 00:49:05;;;;;;;5.50;4.40;;;-0.30;99.90;;;;;;5128269;27;20047;-84
2021/05/03 00:51:31;;;;;;;6.13;3.90;;;-0.30;99.90;;;;;;5127697;27;20058;-84
2021/05/03 00:53:57;;;;;;;4.93;3.95;;;-0.30;99.90;;;;;;5123411;27;20078;-83
2021/05/03 00:56:24;;;;;;;4.70;4.18;;;-0.40;99.90;;;;;;5105085;28;20051;-83
2021/05/03 00:58:50;;;;;;;5.22;3.92;;;-0.40;99.90;;;;;;5099749;28;20078;-83
2021/05/03 01:01:17;;;;;;;5.68;3.88;;;-0.40;99.90;;;;;;5099446;28;20047;-82
2021/05/03 01:03:43;;;;;;;6.50;3.60;;;-0.40;99.90;;;;;;5099326;28;20040;-83
2021/05/03 01:06:09;;;;;;;5.22;4.18;;;-0.50;99.90;;;;;;5111497;27;20047;-83
2021/05/03 01:08:36;;;;;;;6.07;4.03;;;-0.60;99.90;;;;;;5119566;27;20069;-83
2021/05/03 01:11:02;;;;;;;4.70;3.97;;;-0.50;99.90;;;;;;5137199;27;20137;-83
2021/05/03 01:13:28;;;;;;;4.32;3.92;;;-0.60;99.90;;;;;;5119534;27;20047;-83
2021/05/03 01:15:54;;;;;;;6.90;4.10;;;-0.60;99.90;;;;;;5109944;28;20117;-83
2021/05/03 01:18:24;;;;;;;5.90;4.20;;;-0.60;99.90;;;;;;5117087;28;20043;-83
2021/05/03 01:20:55;;;;;;;10.30;5.65;;;-0.70;99.90;;;;;;5107520;27;20067;-82
2021/05/03 01:23:21;;;;;;;7.93;4.97;;;-0.80;99.90;;;;;;5119266;27;20133;-83
2021/05/03 01:25:48;;;;;;;4.72;4.28;;;-0.80;99.90;;;;;;5118488;27;20043;-83
2021/05/03 01:28:14;;;;;;;6.00;4.10;;;-0.80;99.90;;;;;;5119041;27;20078;-83
2021/05/03 01:30:43;;;;;;;4.30;3.90;;;-0.80;99.90;;;;;;5118131;27;20100;-83
2021/05/03 01:33:12;;;;;;;4.90;4.43;;;-0.80;99.90;;;;;;5078085;28;20159;-83
2021/05/03 01:35:40;;;;;;;4.60;3.95;;;-0.80;99.90;;;;;;5089625;27;20047;-83
2021/05/03 01:38:07;;;;;;;8.48;4.88;;;-0.80;99.90;;;;;;5118478;27;20053;-82
2021/05/03 01:40:37;;;;;;;7.00;3.97;;;-0.90;99.90;;;;;;5112435;28;20506;-83
2021/05/03 01:43:18;;;;;;;5.68;4.07;;;-0.90;99.90;;;;;;5115912;28;20047;-83
2021/05/03 01:45:46;;;;;;;4.50;4.07;;;-0.80;99.90;;;;;;5103677;28;20422;-83
2021/05/03 01:48:19;;;;;;;5.13;4.30;;;-0.90;99.90;;;;;;5140023;27;20054;-84
2021/05/03 01:50:45;;;;;;;6.90;4.40;;;-0.90;99.90;;;;;;5122382;27;20059;-83
2021/05/03 01:53:12;;;;;;;5.10;4.30;;;-0.90;99.90;;;;;;5141381;27;20093;-84
2021/05/03 01:55:47;;;;;;;4.47;4.07;;;-0.80;99.90;;;;;;5121516;27;20055;-84
2021/05/03 01:58:14;;;;;;;10.05;5.15;;;-0.80;99.90;;;;;;5141599;27;20051;-84
2021/05/03 02:00:41;;;;;;;11.05;5.70;;;-0.90;99.90;;;;;;5142170;27;20075;-84
2021/05/03 02:03:20;;;;;;;6.95;5.30;;;-0.80;99.90;;;;;;5124041;27;20050;-83
2021/05/03 02:05:47;;;;;;;8.10;5.72;;;-0.80;99.90;;;;;;5119353;28;20047;-83
2021/05/03 02:08:13;;;;;;;8.80;5.32;;;-0.60;99.90;;;;;;5123115;28;20105;-84
2021/05/03 02:10:39;;;;;;;9.13;6.40;;;-0.40;99.90;;;;;;5105119;28;20055;-82
2021/05/03 02:13:06;;;;;;;7.57;6.85;;;-0.30;99.90;;;;;;5124264;27;20051;-84
2021/05/03 02:15:33;;;;;;;8.70;7.25;;;-0.20;99.90;;;;;;5121578;28;20055;-84
2021/05/03 02:18:00;;;;;;;6.78;6.00;;;-0.10;99.90;;;;;;5099780;28;20089;-83
2021/05/03 02:20:27;;;;;;;7.88;6.05;;;0.10;99.90;;;;;;5098622;28;20055;-84
2021/05/03 02:22:53;;;;;;;7.72;6.43;;;0.10;99.90;;;;;;5099234;28;20081;-83
2021/05/03 02:25:20;;;;;;;7.97;6.55;;;0.20;99.90;;;;;;5117426;28;20086;-83
2021/05/03 02:27:47;;;;;;;9.13;6.57;;;0.30;99.90;;;;;;5099251;28;20050;-84
2021/05/03 02:30:16;;;;;;;10.85;5.28;;;0.40;99.90;;;;;;5117261;28;20086;-83
2021/05/03 02:32:43;;;;;;;8.13;5.80;;;0.50;99.90;;;;;;5112716;27;20047;-85
2021/05/03 02:35:24;;;;;;;7.22;4.80;;;0.40;99.90;;;;;;5140200;27;20095;-84
2021/05/03 02:37:55;;;;;;;6.97;5.10;;;0.50;99.90;;;;;;5119091;28;20078;-84
2021/05/03 02:40:24;;;;;;;5.45;4.88;;;0.50;99.90;;;;;;5113621;27;20069;-82
2021/05/03 02:43:01;;;;;;;5.85;4.47;;;0.60;99.90;;;;;;5118350;28;20047;-83
2021/05/03 02:45:28;;;;;;;4.43;4.03;;;0.50;99.90;;;;;;5117666;28;20043;-84
2021/05/03 02:47:55;;;;;;;3.47;3.17;;;0.40;99.90;;;;;;5100498;28;20043;-84
2021/05/03 02:50:23;;;;;;;4.90;3.58;;;0.40;99.90;;;;;;5099748;28;20051;-83
2021/05/03 02:52:50;;;;;;;4.47;3.65;;;0.30;99.90;;;;;;5115735;28;20115;-84
2021/05/03 02:55:17;;;;;;;4.25;3.72;;;0.20;99.90;;;;;;5115995;28;20078;-83
2021/05/03 02:57:45;;;;;;;7.90;3.78;;;0.20;99.90;;;;;;5100022;28;20043;-84
2021/05/03 03:00:21;;;;;;;3.60;3.40;;;0.10;99.90;;;;;;5098587;28;20051;-84
2021/05/03 03:02:48;;;;;;;4.15;3.75;;;0.10;99.90;;;;;;5114617;28;20135;-83
2021/05/03 03:05:14;;;;;;;4.22;3.83;;;0.00;99.90;;;;;;5114915;28;20075;-83
2021/05/03 03:07:41;;;;;;;4.38;3.78;;;-0.10;99.90;;;;;;5114187;28;20127;-83
2021/05/03 03:10:07;;;;;;;5.20;4.35;;;-0.10;99.90;;;;;;5114275;28;20043;-83
2021/05/03 03:12:35;;;;;;;4.40;4.00;;;-0.10;99.90;;;;;;5116136;28;20513;-84
2021/05/03 03:15:03;;;;;;;4.45;4.13;;;-0.20;99.90;;;;;;5097930;28;20050;-83
2021/05/03 03:17:30;;;;;;;5.65;4.80;;;-0.20;99.90;;;;;;5116038;28;20089;-84
2021/05/03 03:19:56;;;;;;;7.07;4.70;;;-0.30;99.90;;;;;;5097654;28;20439;-84
2021/05/03 03:22:22;;;;;;;5.75;4.50;;;-0.30;99.90;;;;;;5115542;28;20134;-83
2021/05/03 03:24:49;;;;;;;6.60;4.88;;;-0.40;99.90;;;;;;5113859;28;20097;-84
2021/05/03 03:27:15;;;;;;;15.80;4.68;;;-0.40;99.90;;;;;;5114298;28;20134;-83
2021/05/03 03:29:42;;;;;;;6.88;4.50;;;-0.40;99.90;;;;;;5116191;28;20059;-82
2021/05/03 03:32:08;;;;;;;13.40;4.18;;;-0.50;99.90;;;;;;5118106;27;20108;-84
2021/05/03 03:34:34;;;;;;;8.70;4.35;;;-0.50;99.90;;;;;;5119436;27;20055;-84
2021/05/03 03:37:12;;;;;;;7.82;5.05;;;-0.60;99.90;;;;;;5125895;28;20062;-84
2021/05/03 03:39:39;;;;;;;6.55;4.22;;;-0.70;99.90;;;;;;5116862;28;20077;-84
2021/05/03 03:42:05;;;;;;;6.75;5.47;;;-0.70;99.90;;;;;;5098253;28;20044;-84
2021/05/03 03:44:32;;;;;;;8.02;5.20;;;-0.80;99.90;;;;;;5119679;28;20071;-84
2021/05/03 03:46:58;;;;;;;11.65;5.35;;;-0.80;99.90;;;;;;5100209;28;20495;-84
2021/05/03 03:49:25;;;;;;;9.70;5.32;;;-0.80;99.90;;;;;;5101138;28;20153;-82
2021/05/03 03:51:58;;;;;;;8.68;5.82;;;-0.90;99.90;;;;;;5118172;28;20047;-84
2021/05/03 03:54:24;;;;;;;5.80;5.30;;;-0.90;99.90;;;;;;5115640;28;20071;-84
2021/05/03 03:56:50;;;;;;;8.20;5.30;;;-0.90;99.90;;;;;;5115972;28;20048;-83
2021/05/03 03:59:16;;;;;;;8.50;5.35;;;-0.90;99.90;;;;;;5117953;28;20043;-83
2021/05/03 04:01:44;;;;;;;7.25;5.68;;;-0.80;99.90;;;;;;5117715;28;20075;-84
2021/05/03 04:04:19;;;;;;;7.63;6.05;;;-0.80;99.90;;;;;;5117314;28;20062;-84
2021/05/03 04:06:54;;;;;;;8.15;6.57;;;-0.80;99.90;;;;;;5115812;28;20464;-83
2021/05/03 04:23:08;;;;;;;5.63;5.13;;;-0.60;99.90;;;;;;5122541;28;20067;-83
2021/05/03 04:25:38;;;;;;;8.90;5.90;;;-0.60;99.90;;;;;;5122844;28;20055;-84
2021/05/03 04:28:05;;;;;;;7.35;5.28;;;-0.60;99.90;;;;;;5123160;28;20044;-84
2021/05/03 04:30:31;;;;;;;9.90;6.20;;;-0.60;99.90;;;;;;5103513;28;20044;-84
2021/05/03 04:32:58;;;;;;;14.07;7.47;;;-0.50;99.90;;;;;;5122569;28;20051;-83
2021/05/03 04:35:24;;;;;;;12.73;8.32;;;-0.50;99.90;;;;;;5124239;28;20050;-83
2021/05/03 04:37:51;;;;;;;17.27;8.13;;;-0.40;99.90;;;;;;5123039;28;20100;-84
2021/05/03 04:40:18;;;;;;;19.52;9.43;;;-0.30;99.90;;;;;;5113105;28;20051;-83
2021/05/03 04:42:44;;;;;;;16.30;9.73;;;-0.20;99.90;;;;;;5120871;28;20048;-83
2021/05/03 04:45:12;;;;;;;9.40;6.70;;;-0.10;99.90;;;;;;5121062;28;20055;-83
2021/05/03 04:47:39;;;;;;;6.88;6.28;;;-0.10;99.90;;;;;;5121162;28;20067;-84
2021/05/03 04:50:07;;;;;;;8.75;6.03;;;0.00;99.90;;;;;;5123184;28;20051;-84
2021/05/03 04:52:34;;;;;;;7.20;5.70;;;0.00;99.90;;;;;;5123796;28;20070;-84
2021/05/03 04:55:01;;;;;;;7.70;6.15;;;0.00;99.90;;;;;;5124609;28;20043;-83
2021/05/03 04:57:27;;;;;;;22.23;7.95;;;0.00;99.90;;;;;;5124010;28;20104;-84
2021/05/03 04:59:53;;;;;;;10.50;7.55;;;0.00;99.90;;;;;;5107467;28;20078;-85
2021/05/03 05:02:20;;;;;;;16.08;9.45;;;0.10;99.90;;;;;;5124611;28;20044;-83
2021/05/03 05:04:47;;;;;;;14.60;9.93;;;0.30;99.90;;;;;;5104596;28;20044;-84
2021/05/03 05:07:13;;;;;;;25.02;14.57;;;0.60;99.90;;;;;;5110683;28;20047;-83
2021/05/03 05:09:40;;;;;;;21.52;12.70;;;0.90;99.90;;;;;;5130562;28;20475;-82
2021/05/03 05:12:07;;;;;;;16.92;10.02;;;1.10;99.90;;;;;;5131159;28;20044;-84
2021/05/03 05:14:33;;;;;;;18.42;12.73;;;1.30;99.90;;;;;;5131799;28;20055;-83
2021/05/03 05:17:01;;;;;;;29.80;13.55;;;1.50;99.90;;;;;;5130041;28;20077;-83
2021/05/03 05:19:30;;;;;;;13.45;8.15;;;1.90;99.90;;;;;;5129721;28;20150;-83
2021/05/03 05:21:56;;;;;;;15.13;6.05;;;2.50;99.90;;;;;;5129352;28;20483;-83
2021/05/03 05:24:22;;;;;;;15.20;4.68;;;2.90;99.90;;;;;;5126166;28;20044;-83
2021/05/03 05:26:48;;;;;;;3.17;2.88;;;3.40;99.90;;;;;;5124128;28;20105;-84
2021/05/03 05:29:15;;;;;;;7.43;2.35;;;3.80;99.90;;;;;;5123757;28;20047;-82
2021/05/03 05:31:41;;;;;;;2.47;2.38;;;4.00;99.90;;;;;;5122850;28;20101;-82
2021/05/03 05:34:08;;;;;;;5.95;2.38;;;4.30;99.90;;;;;;5116455;28;20100;-82
2021/05/03 05:36:34;;;;;;;3.47;1.92;;;5.20;99.90;;;;;;5116398;28;20082;-84
2021/05/03 05:39:00;;;;;;;1.58;1.50;;;6.10;99.90;;;;;;5116006;28;20080;-83
2021/05/03 05:41:27;;;;;;;1.80;1.70;;;6.30;99.90;;;;;;5121303;28;20078;-83
2021/05/03 05:43:53;;;;;;;7.13;1.60;;;6.80;99.90;;;;;;5121869;28;20074;-83
2021/05/03 05:46:20;;;;;;;3.45;1.67;;;7.40;99.90;;;;;;5122657;28;20484;-83
2021/05/03 05:48:46;;;;;;;6.38;1.70;;;8.30;99.90;;;;;;5123179;28;20116;-83
2021/05/03 05:51:13;;;;;;;3.65;1.77;;;9.50;99.90;;;;;;5123533;28;20055;-82
2021/05/03 05:53:40;;;;;;;4.85;1.70;;;10.20;99.90;;;;;;5123050;28;20052;-84
2021/05/03 05:56:06;;;;;;;2.80;1.77;;;10.90;99.90;;;;;;5124196;28;20085;-82
2021/05/03 05:58:33;;;;;;;3.28;1.75;;;11.20;99.90;;;;;;5123250;28;20051;-83
2021/05/03 06:01:01;;;;;;;1.98;1.40;;;11.30;99.90;;;;;;5123885;28;20044;-83
2021/05/03 06:03:27;;;;;;;1.52;1.42;;;11.70;99.90;;;;;;5124996;28;20046;-83
2021/05/03 06:05:56;;;;;;;2.85;1.50;;;12.70;99.90;;;;;;5124751;28;20487;-84
2021/05/03 06:08:23;;;;;;;6.18;1.90;;;12.80;99.90;;;;;;5125920;28;20048;-84
2021/05/03 06:10:50;;;;;;;7.90;1.35;;;13.00;99.90;;;;;;5125801;28;20564;-84
2021/05/03 06:13:16;;;;;;;4.43;1.45;;;12.80;98.80;;;;;;5126178;28;20067;-85
2021/05/03 06:15:42;;;;;;;8.77;2.60;;;13.30;99.90;;;;;;5126352;28;20073;-85
2021/05/03 06:18:09;;;;;;;3.20;1.48;;;13.30;99.20;;;;;;5127923;28;20051;-86
2021/05/03 06:20:35;;;;;;;2.45;1.63;;;13.60;95.90;;;;;;5107184;28;20050;-85
2021/05/03 06:23:03;;;;;;;13.25;1.90;;;13.70;96.20;;;;;;5112185;28;20043;-85
2021/05/03 06:25:45;;;;;;;24.88;2.53;;;14.20;94.50;;;;;;5127224;28;20077;-85
2021/05/03 06:28:12;;;;;;;4.22;1.35;;;14.50;92.30;;;;;;5113790;28;20460;-84
2021/05/03 06:30:39;;;;;;;10.82;1.60;;;14.10;90.30;;;;;;5102017;28;20079;-87
2021/05/03 06:33:06;;;;;;;12.40;6.43;;;14.40;86.40;;;;;;5103283;28;20044;-86
2021/05/03 06:35:33;;;;;;;5.03;1.55;;;15.30;79.70;;;;;;5113159;28;20044;-84
2021/05/03 06:37:59;;;;;;;1.17;1.08;;;16.20;74.10;;;;;;5118583;28;20069;-86
2021/05/03 06:40:26;;;;;;;1.92;1.83;;;15.80;70.50;;;;;;5109335;28;20414;-85
2021/05/03 06:42:52;;;;;;;1.17;1.17;;;16.10;71.70;;;;;;5110370;28;20454;-85
2021/05/03 06:45:22;;;;;;;1.83;1.08;;;16.60;69.50;;;;;;5104535;28;20047;-84
2021/05/03 06:47:50;;;;;;;1.70;1.17;;;15.80;66.30;;;;;;5103948;28;20055;-86
2021/05/03 06:50:18;;;;;;;1.23;1.17;;;14.40;70.10;;;;;;5101088;28;20122;-85
2021/05/03 06:52:44;;;;;;;1.02;1.02;;;14.90;71.30;;;;;;5104814;28;20040;-85
2021/05/03 06:55:14;;;;;;;17.85;3.08;;;14.40;69.90;;;;;;5122681;28;20437;-86
2021/05/03 06:57:42;;;;;;;1.60;1.20;;;13.80;70.40;;;;;;5103460;28;20062;-84
2021/05/03 07:00:10;;;;;;;7.53;1.20;;;13.80;74.30;;;;;;5118341;28;20455;-84
2021/05/03 07:02:38;;;;;;;2.28;1.10;;;14.10;73.60;;;;;;5099607;28;20054;-82
2021/05/03 07:05:05;;;;;;;5.72;1.20;;;13.30;70.60;;;;;;5119567;28;20048;-83
2021/05/03 07:07:32;;;;;;;4.13;1.60;;;12.50;76.50;;;;;;5126266;28;20047;-83
2021/05/03 07:09:59;;;;;;;6.07;1.40;;;13.20;77.80;;;;;;5127240;28;20510;-83
2021/05/03 07:12:27;;;;;;;9.55;1.50;;;13.70;73.80;;;;;;5125972;28;20051;-84
2021/05/03 07:14:53;;;;;;;82.15;4.72;;;13.90;73.60;;;;;;5107953;28;20078;-84
2021/05/03 07:17:26;;;;;;;2.47;1.08;;;14.50;72.60;;;;;;5121892;28;20047;-84
2021/05/03 07:19:52;;;;;;;15.40;1.88;;;15.40;71.10;;;;;;5124646;28;20047;-84
2021/05/03 07:22:22;;;;;;;2.33;0.70;;;17.50;68.20;;;;;;5125065;28;20073;-83
2021/05/03 07:24:50;;;;;;;10.73;2.35;;;17.50;61.60;;;;;;5108982;28;20130;-82
2021/05/03 07:27:21;;;;;;;1.10;1.00;;;15.80;63.00;;;;;;5108290;28;20052;-85
2021/05/03 07:29:48;;;;;;;4.82;1.80;;;14.60;64.10;;;;;;5125375;28;20130;-84
2021/05/03 07:32:15;;;;;;;2.33;0.90;;;15.20;67.50;;;;;;5109777;28;20471;-84
2021/05/03 07:34:43;;;;;;;0.80;0.80;;;16.70;64.00;;;;;;5098755;28;20048;-82
2021/05/03 07:37:11;;;;;;;14.30;2.60;;;15.70;62.50;;;;;;5096426;28;20090;-81
2021/05/03 07:39:37;;;;;;;13.40;1.67;;;15.50;64.10;;;;;;5114605;28;20151;-83
2021/05/03 07:42:04;;;;;;;8.30;1.30;;;15.80;65.20;;;;;;5105554;28;20062;-84
2021/05/03 07:44:50;;;;;;;0.70;0.70;;;18.20;65.90;;;;;;5105450;28;20134;-85
2021/05/03 07:47:17;;;;;;;0.77;0.77;;;20.30;56.50;;;;;;5093220;28;20097;-84
2021/05/03 07:49:44;;;;;;;8.13;1.30;;;20.60;53.30;;;;;;5124063;27;20414;-82
2021/05/03 07:52:11;;;;;;;1.50;0.70;;;21.20;52.90;;;;;;5145777;27;20051;-84
2021/05/03 07:54:40;;;;;;;10.35;1.65;;;19.90;51.00;;;;;;5127287;28;20090;-84
2021/05/03 07:57:06;;;;;;;13.02;3.05;;;18.00;53.20;;;;;;5128609;27;20079;-84
2021/05/03 07:59:32;;;;;;;3.00;1.05;;;18.40;54.60;;;;;;5127665;27;20072;-85
2021/05/03 08:01:58;;;;;;;20.80;3.33;;;19.60;54.40;;;;;;5147333;27;20055;-85
2021/05/03 08:04:26;;;;;;;1.33;0.88;;;20.40;52.20;;;;;;5141343;27;20039;-83
2021/05/03 08:06:57;;;;;;;2.05;0.80;;;19.30;50.80;;;;;;5145666;27;20047;-81
2021/05/03 08:09:25;;;;;;;0.60;0.60;;;19.60;51.50;;;;;;5119427;28;20096;-81
2021/05/03 08:11:52;;;;;;;5.68;0.90;;;20.40;50.80;;;;;;5104017;28;20073;-81
2021/05/03 08:14:20;;;;;;;0.60;0.60;;;21.00;48.60;;;;;;5104631;28;20490;-80
2021/05/03 08:16:50;;;;;;;1.63;0.70;;;21.50;48.10;;;;;;5123981;28;20075;-82
2021/05/03 08:19:17;;;;;;;0.60;0.50;;;21.50;46.80;;;;;;5102712;28;20061;-83
2021/05/03 08:21:55;;;;;;;7.32;0.98;;;19.90;47.50;;;;;;5101811;28;20448;-80
2021/05/03 08:24:21;;;;;;;2.60;0.82;;;19.50;50.60;;;;;;5120659;28;20047;-83
2021/05/03 08:26:47;;;;;;;10.40;1.55;;;19.30;49.30;;;;;;5102407;28;20051;-82
2021/05/03 08:29:15;;;;;;;3.38;1.10;;;20.10;49.50;;;;;;5101503;28;20086;-80
2021/05/03 08:31:42;;;;;;;1.40;0.52;;;20.80;48.70;;;;;;5102564;28;20108;-83
2021/05/03 08:34:08;;;;;;;4.05;1.15;;;19.60;46.50;;;;;;5114664;28;20048;-80
2021/05/03 08:36:35;;;;;;;4.00;0.60;;;20.00;48.20;;;;;;5121169;28;20087;-83
2021/05/03 08:39:04;;;;;;;1.40;0.60;;;20.70;47.80;;;;;;5122884;28;20047;-84
2021/05/03 08:41:32;;;;;;;7.57;1.70;;;21.50;48.10;;;;;;5136094;28;20074;-81
2021/05/03 08:43:58;;;;;;;6.07;0.50;;;20.80;46.20;;;;;;5124552;28;20047;-81
2021/05/03 08:46:28;;;;;;;0.88;0.60;;;20.40;47.80;;;;;;5142463;28;20085;-80
2021/05/03 08:49:04;;;;;;;1.58;0.95;;;19.60;50.30;;;;;;5117432;28;20127;-80
2021/05/03 08:51:35;;;;;;;2.42;0.77;;;20.10;48.70;;;;;;5123733;28;20402;-80
2021/05/03 08:55:02;;;;;;;1.45;0.60;;;21.20;48.10;;;;;;5120877;28;20395;-80
2021/05/03 08:56:57;;;;;;;4.97;1.00;;;21.60;44.90;;;;;;5117391;27;20169;-83
2021/05/03 08:59:24;;;;;;;3.55;0.88;;;20.70;46.10;;;;;;5123200;28;20151;-82
2021/05/03 09:01:52;;;;;;;2.35;0.68;;;20.40;46.20;;;;;;5142541;28;20043;-83
2021/05/03 09:04:19;;;;;;;11.20;1.88;;;20.10;46.00;;;;;;5125670;27;20074;-81
2021/05/03 09:07:05;;;;;;;2.25;0.80;;;20.10;47.30;;;;;;5146507;27;20050;-83
2021/05/03 09:09:33;;;;;;;3.15;1.17;;;20.40;46.30;;;;;;5128564;27;20051;-79
2021/05/03 09:12:09;;;;;;;2.72;1.00;;;21.60;45.00;;;;;;5122624;28;20070;-81
2021/05/03 09:15:01;;;;;;;0.63;0.57;;;20.90;45.00;;;;;;5102681;28;20131;-80
2021/05/03 09:17:44;;;;;;;1.80;0.80;;;19.10;47.20;;;;;;5123202;28;20050;-82
2021/05/03 09:20:14;;;;;;;1.38;0.80;;;19.80;47.30;;;;;;5108224;27;20043;-78
2021/05/03 09:22:46;;;;;;;1.95;0.90;;;21.20;46.10;;;;;;5122535;27;20071;-80
2021/05/03 09:25:39;;;;;;;2.15;0.77;;;20.40;45.50;;;;;;5136665;27;20118;-79
2021/05/03 09:28:15;;;;;;;5.63;1.10;;;19.10;46.80;;;;;;5118765;27;20079;-80
2021/05/03 09:30:54;;;;;;;0.68;0.60;;;19.00;45.90;;;;;;5098164;28;20086;-82
2021/05/03 09:33:38;;;;;;;0.80;0.70;;;18.50;48.10;;;;;;5077712;28;20130;-82
2021/05/03 09:36:10;;;;;;;0.80;0.80;;;18.80;48.20;;;;;;5078048;28;20040;-80
2021/05/03 09:38:45;;;;;;;1.63;0.70;;;19.00;47.40;;;;;;5085357;28;20075;-78
2021/05/03 09:41:12;;;;;;;3.25;0.95;;;19.30;46.70;;;;;;5102122;28;20126;-79
2021/05/03 09:43:40;;;;;;;0.65;0.65;;;19.00;46.00;;;;;;5105780;28;20079;-81
2021/05/03 09:46:31;;;;;;;0.90;0.70;;;18.50;47.60;;;;;;5123528;27;20077;-80
2021/05/03 09:49:01;;;;;;;1.33;0.80;;;17.60;48.90;;;;;;5124155;27;20043;-81
2021/05/03 09:51:35;;;;;;;2.35;0.73;;;17.60;50.60;;;;;;5142600;27;20104;-80
2021/05/03 09:54:15;;;;;;;;;;;17.90;49.20;;;;;;5127068;27;20047;-79
2021/05/03 09:57:10;;;;;;;1.52;0.90;;;18.80;49.00;;;;;;5124201;27;20014;-81
2021/05/03 09:59:48;;;;;;;3.65;1.30;;;17.70;49.00;;;;;;5125074;27;20047;-82
2021/05/03 10:02:22;;;;;;;2.08;0.93;;;16.60;50.00;;;;;;5145757;27;20051;-82
2021/05/03 10:07:35;;;;;;;1.20;0.90;;;15.30;54.00;;;;;;5125060;28;20100;-84
2021/05/03 10:10:07;;;;;;;1.08;1.08;;;14.80;53.30;;;;;;5119688;27;20103;-82
2021/05/03 10:12:34;;;;;;;2.85;1.00;;;14.20;54.20;;;;;;5127162;27;20043;-84
2021/05/03 10:15:06;;;;;;;0.88;0.88;;;14.90;57.10;;;;;;5129683;27;20047;-86
2021/05/03 10:17:32;;;;;;;1.58;1.00;;;15.80;54.50;;;;;;5134029;27;20466;-85
2021/05/03 10:20:00;;;;;;;1.92;0.90;;;16.10;53.40;;;;;;5132073;27;20054;-85
2021/05/03 10:22:30;;;;;;;0.85;0.85;;;15.80;53.70;;;;;;5132304;27;20054;-83
2021/05/03 10:25:00;;;;;;;2.35;0.95;;;14.70;53.00;;;;;;5151942;27;20069;-86
2021/05/03 10:27:27;;;;;;;1.00;1.00;;;14.20;54.70;;;;;;5134629;27;20050;-84
2021/05/03 10:30:11;;;;;;;5.18;0.80;;;14.30;56.40;;;;;;5134927;27;20074;-84
2021/05/03 10:32:37;;;;;;;;;;;14.70;56.50;;;;;;5111452;28;20502;-83
2021/05/03 10:35:22;;;;;;;4.63;1.52;;;16.00;54.70;;;;;;5120119;27;19923;-85
2021/05/03 10:37:49;;;;;;;0.70;0.70;;;15.90;52.60;;;;;;5127851;27;20103;-83
2021/05/03 10:40:18;;;;;;;1.88;1.00;;;16.10;52.00;;;;;;5132470;27;20055;-85
2021/05/03 10:43:03;;;;;;;3.63;0.88;;;18.00;52.20;;;;;;5108655;28;20043;-85
2021/05/03 10:46:05;;;;;;;2.35;1.35;;;18.30;50.20;;;;;;5124332;27;20043;-82
2021/05/03 10:48:49;;;;;;;3.65;1.40;;;18.30;48.00;;;;;;5127164;27;20079;-86
2021/05/03 10:51:35;;;;;;;1.90;1.05;;;17.60;50.00;;;;;;5126494;27;20047;-85
2021/05/03 10:56:51;;;;;;;2.90;1.30;;;17.40;51.00;;;;;;5145972;27;20058;-84
2021/05/03 10:59:17;;;;;;;8.30;1.50;;;16.70;51.20;;;;;;5128553;27;20047;-82
2021/05/03 11:01:55;;;;;;;2.97;1.08;;;16.00;52.70;;;;;;5146390;27;20043;-82
2021/05/03 11:04:28;;;;;;;0.85;0.85;;;15.80;54.80;;;;;;5144365;27;20097;-83
2021/05/03 11:06:57;;;;;;;3.90;1.23;;;15.90;55.10;;;;;;5107249;28;20043;-82
2021/05/03 11:09:37;;;;;;;1.35;1.10;;;16.40;52.60;;;;;;5114459;27;20051;-81
2021/05/03 11:12:06;;;;;;;1.13;1.13;;;15.90;51.60;;;;;;5146648;27;20055;-85
2021/05/03 11:15:15;;;;;;;1.00;1.00;;;15.40;52.50;;;;;;5126466;27;20055;-84
2021/05/03 11:18:21;;;;;;;2.15;1.20;;;15.60;53.70;;;;;;5125680;27;20055;-84
2021/05/03 11:21:07;;;;;;;1.42;1.33;;;15.20;53.70;;;;;;5123689;27;20141;-84
2021/05/03 11:23:35;;;;;;;5.93;1.45;;;15.40;53.60;;;;;;5123318;27;20047;-81
2021/05/03 11:26:03;;;;;;;2.58;1.25;;;15.40;53.70;;;;;;5123963;27;20065;-80
2021/05/03 11:28:38;;;;;;;6.43;1.30;;;15.10;53.50;;;;;;5142248;27;20436;-83
2021/05/03 11:31:12;;;;;;;2.17;1.35;;;14.90;53.70;;;;;;5119348;27;20100;-85
2021/05/03 11:33:43;;;;;;;1.98;1.60;;;14.70;55.00;;;;;;5096719;28;20047;-83
2021/05/03 11:36:20;;;;;;;1.05;0.95;;;14.70;55.00;;;;;;5115444;27;20134;-84
2021/05/03 11:38:55;;;;;;;1.42;1.00;;;15.10;55.40;;;;;;5116658;27;20096;-79
2021/05/03 11:44:11;;;;;;;1.05;1.00;;;16.80;52.30;;;;;;5109873;28;20059;-78
2021/05/03 11:46:38;;;;;;;1.00;1.00;;;16.50;50.90;;;;;;5109646;28;20066;-83
2021/05/03 11:49:11;;;;;;;2.40;1.13;;;15.70;51.40;;;;;;5094698;28;20044;-82
2021/05/03 11:51:56;;;;;;;2.10;1.30;;;15.20;53.70;;;;;;5133038;28;20047;-81
2021/05/03 11:54:29;;;;;;;0.93;0.93;;;15.20;54.50;;;;;;5127606;28;20050;-82
2021/05/03 11:57:01;;;;;;;2.97;1.98;;;15.20;53.50;;;;;;5129986;27;20066;-84
2021/05/03 11:59:28;;;;;;;1.48;1.20;;;15.50;54.30;;;;;;5129938;27;20194;-82
2021/05/03 12:02:09;;;;;;;2.35;1.45;;;15.70;53.10;;;;;;5131691;28;20043;-80
2021/05/03 12:04:39;;;;;;;1.88;1.10;;;16.10;53.60;;;;;;5130811;27;20076;-84
2021/05/03 12:07:27;;;;;;;1.50;1.30;;;16.40;53.10;;;;;;5131213;28;20047;-84
2021/05/03 12:10:04;;;;;;;1.35;1.13;;;16.90;54.20;;;;;;5129723;28;20047;-82
2021/05/03 12:12:38;;;;;;;1.50;1.38;;;17.30;51.40;;;;;;5149952;28;20047;-81
2021/05/03 12:15:07;;;;;;;1.25;0.90;;;16.90;49.80;;;;;;5142985;28;20058;-83
2021/05/03 12:17:34;;;;;;;2.05;1.13;;;16.90;51.80;;;;;;5126379;28;20059;-80
2021/05/03 12:20:09;;;;;;;2.22;1.30;;;16.90;51.70;;;;;;5127384;28;20052;-82
2021/05/03 12:22:37;;;;;;;2.05;1.27;;;16.50;50.70;;;;;;5129363;28;20059;-82
2021/05/03 12:25:10;;;;;;;0.93;0.93;;;16.20;50.80;;;;;;5127685;28;20058;-82
2021/05/03 12:27:38;;;;;;;1.55;1.02;;;16.10;51.20;;;;;;5111611;28;20507;-81
2021/05/03 12:30:08;;;;;;;1.00;1.00;;;16.30;52.60;;;;;;5129319;28;20047;-83
2021/05/03 12:32:39;;;;;;;6.75;1.38;;;16.50;52.50;;;;;;5126159;28;20062;-83
2021/05/03 12:35:10;;;;;;;2.38;1.00;;;16.80;50.70;;;;;;5123722;28;20164;-82
2021/05/03 12:37:36;;;;;;;2.00;1.42;;;16.70;52.70;;;;;;5120985;28;20086;-82
2021/05/03 12:40:34;;;;;;;1.88;1.17;;;16.60;51.70;;;;;;5132574;28;20048;-81
2021/05/03 12:43:04;;;;;;;2.60;1.30;;;16.40;52.60;;;;;;5131788;28;20074;-82
2021/05/03 12:50:55;;;;;;;1.08;0.98;;;16.10;51.80;;;;;;5146531;27;20051;-81
2021/05/03 12:53:38;;;;;;;7.68;1.42;;;16.00;51.20;;;;;;5130127;27;20066;-80
2021/05/03 12:56:15;;;;;;;4.35;1.60;;;15.70;52.20;;;;;;5128625;27;20070;-81
2021/05/03 12:59:05;;;;;;;2.10;0.80;;;15.50;52.50;;;;;;5130838;27;20043;-82
2021/05/03 13:29:55;;;;;;;2.28;0.80;;;15.10;49.80;;;;;;5139789;27;20065;-81
2021/05/03 13:32:27;;;;;;;1.35;0.60;;;14.80;50.10;;;;;;5090165;28;20456;-82
2021/05/03 13:34:54;;;;;;;3.50;1.58;;;14.60;51.50;;;;;;5098805;27;20084;-81
2021/05/03 13:37:22;;;;;;;3.42;0.68;;;14.60;52.30;;;;;;5118701;27;20043;-83
2021/05/03 13:40:07;;;;;;;0.70;0.70;;;14.80;51.70;;;;;;5123933;27;20125;-83
2021/05/03 13:42:34;;;;;;;3.92;1.13;;;15.10;51.80;;;;;;5126033;27;20047;-84
2021/05/03 13:45:02;;;;;;;2.38;0.90;;;14.90;50.80;;;;;;5121939;27;20130;-84
2021/05/03 13:47:29;;;;;;;2.65;0.55;;;14.70;50.90;;;;;;5106011;28;20386;-82
2021/05/03 13:49:56;;;;;;;3.63;1.20;;;14.50;51.30;;;;;;5124574;28;20052;-82
2021/05/03 13:52:22;;;;;;;1.35;0.75;;;14.40;51.30;;;;;;5105287;28;20116;-82
2021/05/03 13:54:48;;;;;;;1.95;0.80;;;14.10;51.40;;;;;;5124263;28;20047;-81
2021/05/03 13:57:16;;;;;;;4.72;0.80;;;13.90;50.80;;;;;;5126226;27;20054;-82